createdAt,value
2018-11-07T00:00:01.527Z,75.10
2018-11-07T00:02:30.883Z,74.80
2018-11-07T00:04:59.751Z,74.80
2018-11-07T00:07:29.569Z,74.70
2018-11-07T00:09:58.274Z,74.50
2018-11-07T00:12:27.402Z,74.40
2018-11-07T00:14:57.548Z,74.60
2018-11-07T00:17:26.113Z,74.40
2018-11-07T00:19:54.886Z,74.40
2018-11-07T00:22:23.350Z,74.40
2018-11-07T00:24:53.069Z,74.30
2018-11-07T00:27:21.958Z,74.30
2018-11-07T00:29:50.460Z,74.10
2018-11-07T00:32:19.201Z,74.10
2018-11-07T00:34:48.196Z,74.20
2018-11-07T00:37:17.083Z,74.20
2018-11-07T00:39:45.824Z,74.50
2018-11-07T00:42:14.530Z,74.60
2018-11-07T00:44:43.404Z,74.60
2018-11-07T00:47:12.070Z,75.00
2018-11-07T00:49:41.014Z,74.90
2018-11-07T00:52:09.775Z,75.30
2018-11-07T00:54:38.545Z,75.40
2018-11-07T00:57:07.873Z,75.40
2018-11-07T00:59:36.756Z,75.50
2018-11-07T01:02:05.378Z,75.50
2018-11-07T01:04:33.930Z,75.50
2018-11-07T01:07:03.056Z,75.60
2018-11-07T01:09:32.157Z,75.60
2018-11-07T01:12:00.613Z,75.90
2018-11-07T01:14:29.359Z,75.50
2018-11-07T01:16:57.951Z,75.80
2018-11-07T01:19:26.632Z,76.00
2018-11-07T01:21:55.209Z,75.80
2018-11-07T01:24:23.775Z,76.00
2018-11-07T01:26:52.313Z,76.00
2018-11-07T01:29:21.065Z,76.00
2018-11-07T01:31:49.616Z,76.10
2018-11-07T01:34:18.295Z,76.00
2018-11-07T01:36:46.983Z,76.80
2018-11-07T01:39:15.667Z,76.30
2018-11-07T01:41:44.353Z,76.20
2018-11-07T01:44:12.890Z,76.50
2018-11-07T01:46:41.451Z,76.50
2018-11-07T01:49:10.204Z,76.90
2018-11-07T01:51:38.774Z,76.70
2018-11-07T01:54:07.326Z,76.90
2018-11-07T01:56:35.826Z,77.20
2018-11-07T01:59:04.467Z,77.20
2018-11-07T02:01:33.037Z,77.30
2018-11-07T02:04:01.684Z,77.20
2018-11-07T02:06:30.202Z,77.30
2018-11-07T02:08:58.797Z,78.20
2018-11-07T02:11:27.436Z,77.70
2018-11-07T02:13:55.919Z,77.60
2018-11-07T02:16:24.294Z,77.60
2018-11-07T02:18:52.886Z,77.70
2018-11-07T02:21:21.578Z,77.60
2018-11-07T02:23:50.232Z,77.20
2018-11-07T02:26:18.795Z,77.10
2018-11-07T02:28:47.366Z,76.80
2018-11-07T02:31:16.064Z,76.80
2018-11-07T02:33:44.747Z,76.70
2018-11-07T02:36:13.418Z,76.90
2018-11-07T02:38:42.020Z,76.90
2018-11-07T02:41:10.717Z,77.00
2018-11-07T02:43:39.307Z,77.10
2018-11-07T02:46:08.252Z,77.20
2018-11-07T02:48:36.695Z,77.20
2018-11-07T02:51:05.249Z,77.10
2018-11-07T02:53:33.815Z,77.10
2018-11-07T02:56:02.517Z,77.10
2018-11-07T02:58:30.949Z,77.10
2018-11-07T03:00:59.484Z,77.10
2018-11-07T03:03:27.991Z,77.00
2018-11-07T03:05:56.441Z,77.10
2018-11-07T03:08:24.907Z,77.30
2018-11-07T03:10:53.594Z,77.20
2018-11-07T03:13:22.178Z,77.40
2018-11-07T03:15:50.705Z,77.50
2018-11-07T03:18:19.482Z,77.40
2018-11-07T03:20:48.234Z,77.40
2018-11-07T03:23:16.953Z,77.50
2018-11-07T03:25:45.463Z,77.40
2018-11-07T03:28:13.923Z,77.30
2018-11-07T03:30:42.383Z,77.30
2018-11-07T03:33:11.055Z,77.40
2018-11-07T03:35:39.696Z,77.40
2018-11-07T03:38:08.661Z,77.40
2018-11-07T03:40:37.986Z,77.50
2018-11-07T03:43:06.789Z,77.50
2018-11-07T03:45:40.560Z,77.80
2018-11-07T03:48:09.223Z,77.80
2018-11-07T03:50:37.751Z,77.80
2018-11-07T03:53:06.600Z,77.80
2018-11-07T03:55:34.973Z,78.00
2018-11-07T03:58:03.428Z,78.00
2018-11-07T04:00:31.965Z,78.30
2018-11-07T04:03:00.609Z,78.20
2018-11-07T04:05:29.034Z,78.20
2018-11-07T04:07:57.688Z,78.20
2018-11-07T04:10:26.206Z,78.20
2018-11-07T04:12:54.813Z,78.40
2018-11-07T04:15:23.276Z,78.40
2018-11-07T04:17:51.831Z,78.40
2018-11-07T04:20:20.336Z,78.30
2018-11-07T04:22:48.939Z,78.80
2018-11-07T04:25:17.445Z,78.20
2018-11-07T04:27:45.864Z,78.40
2018-11-07T04:30:14.389Z,78.60
2018-11-07T04:32:43.154Z,78.50
2018-11-07T04:35:12.453Z,78.40
2018-11-07T04:37:41.811Z,78.50
2018-11-07T04:40:11.872Z,78.40
2018-11-07T04:42:40.530Z,78.40
2018-11-07T04:45:09.181Z,78.70
2018-11-07T04:47:37.711Z,78.90
2018-11-07T04:50:07.615Z,78.90
2018-11-07T04:52:36.107Z,79.10
2018-11-07T04:55:04.934Z,79.10
2018-11-07T04:57:33.876Z,79.20
2018-11-07T05:00:02.499Z,79.20
2018-11-07T05:02:31.720Z,79.20
2018-11-07T05:05:00.215Z,79.40
2018-11-07T05:07:29.178Z,79.30
2018-11-07T05:09:57.776Z,79.50
2018-11-07T05:12:26.401Z,79.50
2018-11-07T05:14:55.208Z,79.70
2018-11-07T05:17:23.844Z,79.90
2018-11-07T05:19:53.202Z,79.90
2018-11-07T05:22:21.975Z,79.90
2018-11-07T05:24:50.972Z,80.20
2018-11-07T05:27:19.617Z,80.30
2018-11-07T05:29:48.476Z,80.30
2018-11-07T05:32:17.321Z,80.40
2018-11-07T05:34:46.024Z,80.30
2018-11-07T05:37:15.192Z,80.50
2018-11-07T05:39:43.779Z,80.30
2018-11-07T05:42:12.525Z,80.20
2018-11-07T05:44:41.242Z,80.40
2018-11-07T05:47:09.970Z,80.40
2018-11-07T05:49:38.705Z,80.50
2018-11-07T05:52:07.472Z,80.40
2018-11-07T05:54:36.567Z,80.50
2018-11-07T05:57:05.474Z,80.50
2018-11-07T05:59:34.362Z,80.40
2018-11-07T06:02:03.045Z,80.60
2018-11-07T06:04:31.993Z,80.60
2018-11-07T06:07:00.746Z,80.50
2018-11-07T06:09:29.605Z,80.50
2018-11-07T06:11:58.929Z,80.50
2018-11-07T06:14:30.673Z,80.60
2018-11-07T06:16:59.959Z,80.60
2018-11-07T06:19:28.649Z,81.10
2018-11-07T06:21:57.905Z,80.60
2018-11-07T06:24:27.353Z,80.60
2018-11-07T06:26:56.559Z,80.60
2018-11-07T06:29:25.614Z,80.50
2018-11-07T06:31:54.347Z,80.40
2018-11-07T06:34:24.628Z,80.40
2018-11-07T06:36:53.652Z,80.40
2018-11-07T06:39:22.269Z,80.50
2018-11-07T06:41:51.808Z,80.30
2018-11-07T06:44:21.915Z,80.30
2018-11-07T06:46:51.740Z,80.30
2018-11-07T06:49:22.740Z,80.30
2018-11-07T06:51:51.532Z,80.20
2018-11-07T06:54:20.087Z,80.20
2018-11-07T06:56:48.754Z,80.00
2018-11-07T06:59:17.433Z,80.00
2018-11-07T07:01:46.080Z,80.00
2018-11-07T07:04:14.547Z,80.00
2018-11-07T07:06:43.133Z,80.00
2018-11-07T07:09:12.162Z,79.90
2018-11-07T07:11:40.975Z,79.90
2018-11-07T07:14:10.106Z,79.80
2018-11-07T07:16:38.492Z,79.50
2018-11-07T07:19:07.236Z,79.70
2018-11-07T07:21:36.493Z,79.60
2018-11-07T07:24:04.988Z,79.40
2018-11-07T07:26:33.404Z,79.40
2018-11-07T07:29:02.064Z,79.40
2018-11-07T07:31:30.562Z,80.10
2018-11-07T07:33:59.845Z,79.00
2018-11-07T07:36:28.684Z,79.20
2018-11-07T07:38:57.241Z,79.20
2018-11-07T07:41:25.946Z,79.00
2018-11-07T07:43:54.501Z,78.80
2018-11-07T07:46:24.751Z,78.60
2018-11-07T07:48:53.406Z,78.40
2018-11-07T07:51:22.087Z,78.20
2018-11-07T07:53:50.781Z,78.00
2018-11-07T07:56:19.752Z,77.90
2018-11-07T07:58:48.353Z,78.00
2018-11-07T08:01:16.932Z,77.60
2018-11-07T08:03:46.143Z,77.50
2018-11-07T08:06:14.965Z,77.60
2018-11-07T08:08:43.499Z,77.20
2018-11-07T08:11:12.181Z,76.70
2018-11-07T08:13:41.258Z,76.70
2018-11-07T08:16:10.064Z,76.50
2018-11-07T08:18:38.640Z,76.60
2018-11-07T08:21:07.679Z,76.10
2018-11-07T08:23:36.320Z,75.50
2018-11-07T08:26:05.006Z,75.20
2018-11-07T08:28:34.596Z,75.10
2018-11-07T08:31:03.212Z,74.80
2018-11-07T08:33:31.776Z,74.50
2018-11-07T08:36:00.237Z,74.50
2018-11-07T08:38:29.148Z,74.20
2018-11-07T08:40:58.026Z,73.70
2018-11-07T08:43:27.240Z,73.80
2018-11-07T08:45:56.199Z,74.20
2018-11-07T08:48:25.596Z,73.40
2018-11-07T08:50:54.536Z,73.00
2018-11-07T08:53:23.136Z,72.50
2018-11-07T08:55:52.003Z,72.00
2018-11-07T08:58:21.059Z,71.50
2018-11-07T09:00:50.068Z,71.10
2018-11-07T09:03:19.483Z,71.50
2018-11-07T09:05:48.235Z,71.20
2018-11-07T09:08:17.005Z,70.80
2018-11-07T09:10:45.911Z,71.10
2018-11-07T09:13:14.428Z,70.40
2018-11-07T09:15:43.422Z,70.00
2018-11-07T09:18:12.229Z,69.70
2018-11-07T09:20:41.626Z,70.00
2018-11-07T09:23:10.553Z,70.00
2018-11-07T09:25:39.544Z,69.30
2018-11-07T09:28:08.925Z,68.70
2018-11-07T09:30:37.534Z,69.40
2018-11-07T09:33:06.540Z,69.50
2018-11-07T09:35:35.012Z,68.40
2018-11-07T09:38:03.963Z,67.60
2018-11-07T09:40:32.417Z,66.80
2018-11-07T09:43:01.044Z,67.00
2018-11-07T09:45:29.914Z,66.80
2018-11-07T09:47:58.709Z,66.60
2018-11-07T09:50:27.493Z,67.00
2018-11-07T09:52:58.093Z,66.80
2018-11-07T09:55:28.696Z,65.50
2018-11-07T09:57:58.324Z,65.30
2018-11-07T10:00:27.715Z,65.50
2018-11-07T10:02:56.307Z,65.80
2018-11-07T10:05:25.003Z,66.00
2018-11-07T10:07:54.082Z,66.50
2018-11-07T10:10:23.076Z,66.80
2018-11-07T10:12:52.031Z,67.40
2018-11-07T10:15:21.492Z,67.20
2018-11-07T10:17:50.305Z,67.40
2018-11-07T10:20:20.612Z,67.90
2018-11-07T10:22:49.910Z,68.20
2018-11-07T10:25:18.715Z,68.00
2018-11-07T10:27:48.144Z,68.70
2018-11-07T10:30:18.736Z,68.70
2018-11-07T10:32:48.329Z,69.40
2018-11-07T10:35:17.582Z,69.70
2018-11-07T10:37:45.982Z,70.10
2018-11-07T10:40:19.746Z,70.40
2018-11-07T10:42:48.443Z,70.10
2018-11-07T10:45:16.944Z,70.20
2018-11-07T10:47:46.596Z,70.40
2018-11-07T10:50:18.092Z,71.00
2018-11-07T10:52:47.380Z,71.80
2018-11-07T10:55:17.052Z,72.60
2018-11-07T10:57:46.107Z,72.20
2018-11-07T11:02:26.165Z,71.80
2018-11-07T11:04:54.972Z,72.10
2018-11-07T11:07:23.564Z,72.70
2018-11-07T11:09:52.696Z,72.80
2018-11-07T11:12:21.244Z,74.20
2018-11-07T11:14:49.894Z,73.70
2018-11-07T11:17:18.457Z,73.60
2018-11-07T11:19:47.672Z,74.40
2018-11-07T11:22:16.523Z,74.90
2018-11-07T11:24:45.322Z,74.50
2018-11-07T11:27:14.205Z,74.40
2018-11-07T11:29:42.735Z,74.60
2018-11-07T11:32:11.811Z,74.40
2018-11-07T11:34:40.975Z,73.50
2018-11-07T11:37:19.405Z,73.40
2018-11-07T11:39:48.733Z,73.40
2018-11-07T11:42:17.964Z,73.30
2018-11-07T11:44:46.791Z,72.70
2018-11-07T11:47:15.638Z,73.10
2018-11-07T11:49:44.160Z,72.30
2018-11-07T11:52:13.220Z,72.10
2018-11-07T11:54:42.219Z,72.30
2018-11-07T11:57:11.068Z,72.30
2018-11-07T11:59:40.679Z,71.50
2018-11-07T12:02:09.253Z,71.50
2018-11-07T12:04:38.570Z,72.10
2018-11-07T12:07:07.447Z,71.80
2018-11-07T12:09:36.597Z,72.20
2018-11-07T12:12:05.891Z,72.20
2018-11-07T12:14:35.298Z,72.40
2018-11-07T12:17:04.542Z,72.40
2018-11-07T12:19:33.098Z,72.50
2018-11-07T12:22:02.212Z,72.80
2018-11-07T12:24:30.792Z,72.90
2018-11-07T12:26:59.778Z,73.80
2018-11-07T12:29:28.479Z,74.30
2018-11-07T12:31:57.565Z,75.60
2018-11-07T12:34:26.461Z,76.50
2018-11-07T12:36:55.252Z,78.00
2018-11-07T12:39:24.120Z,78.30
2018-11-07T12:41:53.007Z,79.00
2018-11-07T12:44:22.114Z,79.20
2018-11-07T12:46:50.668Z,79.80
2018-11-07T12:49:19.674Z,79.50
2018-11-07T12:51:49.137Z,79.90
2018-11-07T12:54:18.593Z,79.70
2018-11-07T12:56:47.895Z,80.20
2018-11-07T12:59:16.542Z,80.60
2018-11-07T13:01:45.457Z,81.00
2018-11-07T13:04:14.251Z,81.10
2018-11-07T13:06:42.905Z,81.80
2018-11-07T13:09:12.315Z,82.10
2018-11-07T13:11:41.788Z,82.40
2018-11-07T13:14:11.049Z,82.60
2018-11-07T13:16:39.870Z,83.00
2018-11-07T13:19:08.557Z,83.10
2018-11-07T13:21:37.638Z,83.50
2018-11-07T13:24:06.790Z,83.80
2018-11-07T13:26:36.941Z,83.70
2018-11-07T13:29:06.800Z,83.40
2018-11-07T13:31:36.450Z,83.60
2018-11-07T13:34:06.975Z,83.50
2018-11-07T13:36:37.007Z,83.30
2018-11-07T13:39:08.962Z,83.40
2018-11-07T13:41:50.935Z,83.10
2018-11-07T13:44:20.278Z,82.80
2018-11-07T13:46:49.324Z,83.20
2018-11-07T13:49:18.111Z,83.40
2018-11-07T13:51:47.077Z,83.40
2018-11-07T13:54:16.202Z,83.50
2018-11-07T13:56:45.150Z,83.80
2018-11-07T13:59:14.063Z,83.80
2018-11-07T14:01:43.176Z,84.60
2018-11-07T14:04:12.204Z,83.90
2018-11-07T14:06:41.676Z,84.10
2018-11-07T14:09:12.460Z,84.40
2018-11-07T14:11:41.750Z,84.40
2018-11-07T14:14:10.694Z,84.10
2018-11-07T14:16:40.235Z,84.40
2018-11-07T14:19:09.646Z,84.60
2018-11-07T14:21:38.540Z,84.60
2018-11-07T14:24:07.714Z,84.70
2018-11-07T14:26:36.722Z,84.60
2018-11-07T14:29:05.604Z,84.40
2018-11-07T14:31:34.693Z,84.50
2018-11-07T14:34:04.407Z,84.40
2018-11-07T14:36:33.470Z,84.60
2018-11-07T14:39:02.749Z,84.50
2018-11-07T14:41:31.946Z,84.20
2018-11-07T14:44:01.396Z,84.40
2018-11-07T14:46:30.660Z,84.20
2018-11-07T14:48:59.894Z,84.20
2018-11-07T14:51:28.510Z,84.00
2018-11-07T14:53:57.797Z,84.10
2018-11-07T14:56:27.085Z,84.20
2018-11-07T14:58:55.883Z,83.90
2018-11-07T15:01:24.771Z,83.90
2018-11-07T15:03:54.187Z,83.90
2018-11-07T15:06:24.036Z,83.80
2018-11-07T15:08:53.070Z,84.00
2018-11-07T15:11:21.825Z,84.00
2018-11-07T15:13:50.515Z,84.20
2018-11-07T15:16:19.218Z,83.80
2018-11-07T15:18:48.382Z,83.80
2018-11-07T15:21:17.862Z,83.80
2018-11-07T15:23:46.764Z,83.80
2018-11-07T15:26:15.436Z,84.20
2018-11-07T15:28:44.491Z,84.10
2018-11-07T15:31:13.104Z,83.90
2018-11-07T15:33:41.840Z,84.40
2018-11-07T15:36:11.085Z,84.40
2018-11-07T15:38:40.513Z,84.20
2018-11-07T15:41:10.887Z,84.40
2018-11-07T15:43:40.995Z,84.40
2018-11-07T15:46:09.834Z,84.70
2018-11-07T15:48:38.832Z,84.60
2018-11-07T15:51:14.285Z,84.60
2018-11-07T15:53:44.608Z,84.50
2018-11-07T15:56:13.305Z,84.60
2018-11-07T15:58:41.976Z,84.90
2018-11-07T16:01:11.310Z,84.90
2018-11-07T16:03:46.482Z,84.80
2018-11-07T16:06:16.166Z,84.90
2018-11-07T16:08:46.277Z,85.00
2018-11-07T16:11:16.690Z,85.20
2018-11-07T16:13:46.233Z,85.20
2018-11-07T16:16:16.352Z,85.10
2018-11-07T16:18:46.361Z,85.20
2018-11-07T16:21:16.294Z,85.20
2018-11-07T16:23:46.090Z,85.20
2018-11-07T16:26:15.066Z,85.50
2018-11-07T16:28:44.770Z,85.50
2018-11-07T16:31:14.076Z,85.50
2018-11-07T16:33:43.027Z,85.80
2018-11-07T16:36:12.140Z,85.30
2018-11-07T16:38:43.222Z,85.30
2018-11-07T16:41:13.998Z,85.30
2018-11-07T16:43:43.673Z,85.70
2018-11-07T16:46:12.817Z,85.50
2018-11-07T16:48:42.138Z,85.50
2018-11-07T16:51:12.632Z,85.60
2018-11-07T16:53:42.628Z,85.70
2018-11-07T16:56:15.533Z,85.60
2018-11-07T16:58:44.711Z,85.60
2018-11-07T17:01:15.303Z,85.70
2018-11-07T17:03:44.385Z,85.80
2018-11-07T17:06:13.430Z,85.80
2018-11-07T17:08:43.355Z,85.90
2018-11-07T17:11:12.873Z,86.10
2018-11-07T17:13:41.699Z,86.00
2018-11-07T17:16:10.930Z,86.00
2018-11-07T17:18:40.503Z,86.00
2018-11-07T17:21:09.388Z,86.00
2018-11-07T17:23:38.858Z,86.00
2018-11-07T17:26:08.132Z,86.30
2018-11-07T17:28:37.148Z,86.10
2018-11-07T17:31:07.682Z,86.20
2018-11-07T17:33:36.351Z,86.20
2018-11-07T17:36:05.414Z,86.40
2018-11-07T17:38:40.729Z,86.20
2018-11-07T17:41:10.317Z,86.20
2018-11-07T17:43:39.032Z,86.40
2018-11-07T17:46:09.099Z,86.20
2018-11-07T17:48:38.243Z,86.00
2018-11-07T17:51:07.611Z,86.00
2018-11-07T17:53:36.502Z,86.20
2018-11-07T17:56:06.209Z,86.20
2018-11-07T17:58:35.115Z,86.30
2018-11-07T18:01:04.103Z,85.90
2018-11-07T18:03:32.847Z,86.20
2018-11-07T18:06:01.639Z,86.30
2018-11-07T18:08:31.089Z,86.00
2018-11-07T18:11:00.206Z,86.10
2018-11-07T18:13:29.388Z,86.10
2018-11-07T18:15:58.564Z,86.00
2018-11-07T18:18:27.380Z,86.10
2018-11-07T18:20:56.081Z,86.10
2018-11-07T18:23:25.464Z,86.10
2018-11-07T18:25:54.569Z,86.00
2018-11-07T18:28:23.394Z,85.90
2018-11-07T18:30:52.215Z,85.90
2018-11-07T18:33:21.377Z,86.00
2018-11-07T18:35:50.411Z,85.90
2018-11-07T18:38:19.237Z,85.80
2018-11-07T18:40:47.963Z,85.70
2018-11-07T18:43:16.471Z,85.90
2018-11-07T18:45:44.965Z,85.90
2018-11-07T18:48:13.395Z,85.80
2018-11-07T18:50:41.961Z,85.90
2018-11-07T18:53:10.502Z,86.10
2018-11-07T18:55:38.844Z,85.80
2018-11-07T18:58:07.837Z,85.70
2018-11-07T19:00:36.552Z,85.80
2018-11-07T19:03:05.177Z,86.00
2018-11-07T19:05:33.591Z,86.00
2018-11-07T19:08:02.025Z,86.10
2018-11-07T19:10:30.399Z,86.20
2018-11-07T19:12:58.750Z,86.30
2018-11-07T19:15:27.178Z,86.20
2018-11-07T19:17:55.671Z,86.20
2018-11-07T19:20:24.073Z,86.40
2018-11-07T19:22:52.561Z,86.40
2018-11-07T19:25:21.553Z,86.50
2018-11-07T19:27:50.012Z,86.70
2018-11-07T19:30:19.479Z,86.50
2018-11-07T19:32:48.745Z,86.50
2018-11-07T19:35:18.081Z,86.50
2018-11-07T19:37:46.926Z,86.70
2018-11-07T19:40:19.867Z,86.70
2018-11-07T19:42:48.605Z,86.60
2018-11-07T19:45:18.061Z,86.80
2018-11-07T19:47:46.449Z,86.90
2018-11-07T19:50:16.528Z,86.90
2018-11-07T19:52:45.452Z,86.80
2018-11-07T19:55:16.112Z,87.10
2018-11-07T19:57:54.534Z,87.20
2018-11-07T20:00:23.133Z,87.30
2018-11-07T20:02:51.788Z,87.20
2018-11-07T20:05:20.302Z,87.30
2018-11-07T20:07:49.184Z,87.30
2018-11-07T20:10:19.711Z,87.40
2018-11-07T20:12:48.002Z,87.50
2018-11-07T20:15:17.629Z,88.20
2018-11-07T20:17:46.014Z,87.30
2018-11-07T20:20:14.816Z,87.30
2018-11-07T20:22:43.575Z,87.30
2018-11-07T20:25:12.829Z,87.20
2018-11-07T20:27:41.560Z,87.30
2018-11-07T20:30:11.608Z,87.30
2018-11-07T20:32:40.163Z,87.40
2018-11-07T20:35:10.235Z,87.30
2018-11-07T20:37:38.606Z,87.50
2018-11-07T20:40:09.439Z,87.40
2018-11-07T20:42:37.987Z,87.30
2018-11-07T20:45:06.969Z,87.50
2018-11-07T20:47:35.758Z,87.70
2018-11-07T20:50:07.334Z,87.90
2018-11-07T20:52:36.494Z,87.90
2018-11-07T20:55:04.961Z,87.60
2018-11-07T20:57:35.876Z,87.80
2018-11-07T21:00:07.344Z,87.70
2018-11-07T21:02:36.092Z,87.80
2018-11-07T21:05:05.048Z,87.60
2018-11-07T21:07:33.616Z,87.30
2018-11-07T21:10:03.166Z,87.60
2018-11-07T21:12:31.558Z,87.60
2018-11-07T21:14:59.953Z,87.40
2018-11-07T21:17:28.293Z,87.50
2018-11-07T21:19:56.637Z,87.60
2018-11-07T21:22:25.015Z,87.60
2018-11-07T21:24:53.422Z,87.70
2018-11-07T21:27:21.706Z,87.70
2018-11-07T21:29:50.012Z,87.70
2018-11-07T21:32:18.379Z,87.50
2018-11-07T21:34:46.952Z,88.00
2018-11-07T21:37:15.282Z,88.10
2018-11-07T21:39:43.601Z,88.20
2018-11-07T21:42:12.150Z,88.50
2018-11-07T21:44:40.778Z,88.70
2018-11-07T21:47:10.109Z,88.60
2018-11-07T21:49:38.801Z,88.60
2018-11-07T21:52:07.362Z,88.80
2018-11-07T21:54:35.723Z,88.60
2018-11-07T21:57:04.114Z,88.80
2018-11-07T21:59:32.454Z,88.60
2018-11-07T22:02:00.871Z,88.60
2018-11-07T22:04:29.345Z,88.80
2018-11-07T22:06:58.066Z,88.80
2018-11-07T22:09:26.393Z,89.00
2018-11-07T22:11:54.638Z,88.80
2018-11-07T22:14:23.093Z,88.60
2018-11-07T22:16:51.408Z,88.40
2018-11-07T22:19:19.807Z,88.60
2018-11-07T22:21:48.194Z,88.70
2018-11-07T22:24:16.560Z,89.50
2018-11-07T22:26:45.131Z,89.00
2018-11-07T22:29:13.447Z,89.00
2018-11-07T22:31:41.832Z,88.80
2018-11-07T22:34:10.608Z,88.40
2018-11-07T22:36:39.017Z,88.50
2018-11-07T22:39:09.632Z,88.60
2018-11-07T22:41:37.979Z,88.60
2018-11-07T22:44:07.010Z,88.80
2018-11-07T22:46:35.604Z,88.80
2018-11-07T22:49:04.838Z,89.00
2018-11-07T22:51:33.304Z,89.00
2018-11-07T22:54:03.392Z,88.90
2018-11-07T22:56:31.999Z,89.20
2018-11-07T22:59:00.994Z,89.10
2018-11-07T23:01:35.103Z,89.20
2018-11-07T23:04:04.308Z,89.20
2018-11-07T23:06:32.922Z,89.30
2018-11-07T23:09:01.630Z,89.10
2018-11-07T23:11:30.087Z,89.10
2018-11-07T23:13:58.737Z,89.00
2018-11-07T23:16:27.908Z,89.20
2018-11-07T23:18:56.377Z,89.40
2018-11-07T23:21:24.897Z,89.60
2018-11-07T23:23:53.551Z,89.80
2018-11-07T23:26:30.884Z,89.70
2018-11-07T23:28:59.812Z,89.70
2018-11-07T23:31:28.829Z,89.50
2018-11-07T23:34:37.784Z,89.20
2018-11-07T23:37:44.797Z,89.40
2018-11-07T23:40:29.034Z,89.60
2018-11-07T23:42:57.560Z,89.20
2018-11-07T23:45:26.465Z,89.20
2018-11-07T23:47:55.085Z,89.40
2018-11-07T23:50:23.710Z,89.70
2018-11-07T23:52:53.152Z,89.40
2018-11-07T23:55:22.660Z,89.60
2018-11-07T23:57:58.798Z,89.60
